sensor_id;sensor_type;location;lat;lon;timestamp;P1;durP1;ratioP1;P2;durP2;ratioP2
68377;SDS011;55322;48.146;11.516;2023-02-07T00:00:32;19.90;;;9.47;;
68377;SDS011;55322;48.146;11.516;2023-02-07T00:02:57;20.00;;;10.60;;
68377;SDS011;55322;48.146;11.516;2023-02-07T00:05:23;18.80;;;10.30;;
68377;SDS011;55322;48.146;11.516;2023-02-07T00:07:48;19.67;;;10.80;;
68377;SDS011;55322;48.146;11.516;2023-02-07T00:10:14;19.20;;;9.98;;
68377;SDS011;55322;48.146;11.516;2023-02-07T00:12:40;19.35;;;10.13;;
68377;SDS011;55322;48.146;11.516;2023-02-07T00:15:05;19.67;;;10.90;;
68377;SDS011;55322;48.146;11.516;2023-02-07T00:17:31;19.10;;;10.50;;
68377;SDS011;55322;48.146;11.516;2023-02-07T00:19:57;20.83;;;11.47;;
68377;SDS011;55322;48.146;11.516;2023-02-07T00:22:22;20.77;;;11.93;;
68377;SDS011;55322;48.146;11.516;2023-02-07T00:24:48;21.87;;;11.00;;
68377;SDS011;55322;48.146;11.516;2023-02-07T00:27:13;19.10;;;10.93;;
68377;SDS011;55322;48.146;11.516;2023-02-07T00:29:38;20.77;;;10.67;;
68377;SDS011;55322;48.146;11.516;2023-02-07T00:32:04;19.30;;;11.40;;
68377;SDS011;55322;48.146;11.516;2023-02-07T00:34:29;22.30;;;10.60;;
68377;SDS011;55322;48.146;11.516;2023-02-07T00:36:55;18.15;;;8.60;;
68377;SDS011;55322;48.146;11.516;2023-02-07T00:39:21;16.85;;;9.95;;
68377;SDS011;55322;48.146;11.516;2023-02-07T00:41:46;17.07;;;9.33;;
68377;SDS011;55322;48.146;11.516;2023-02-07T00:44:12;20.20;;;10.97;;
68377;SDS011;55322;48.146;11.516;2023-02-07T00:46:37;17.45;;;9.50;;
68377;SDS011;55322;48.146;11.516;2023-02-07T00:49:03;16.83;;;9.63;;
68377;SDS011;55322;48.146;11.516;2023-02-07T00:51:29;17.17;;;8.95;;
68377;SDS011;55322;48.146;11.516;2023-02-07T00:53:55;20.17;;;10.53;;
68377;SDS011;55322;48.146;11.516;2023-02-07T00:56:22;20.95;;;9.55;;
68377;SDS011;55322;48.146;11.516;2023-02-07T00:58:48;21.23;;;11.27;;
68377;SDS011;55322;48.146;11.516;2023-02-07T01:01:14;17.87;;;10.43;;
68377;SDS011;55322;48.146;11.516;2023-02-07T01:03:40;21.00;;;10.30;;
68377;SDS011;55322;48.146;11.516;2023-02-07T01:06:06;19.40;;;10.40;;
68377;SDS011;55322;48.146;11.516;2023-02-07T01:08:32;18.65;;;10.13;;
68377;SDS011;55322;48.146;11.516;2023-02-07T01:11:01;22.05;;;10.73;;
68377;SDS011;55322;48.146;11.516;2023-02-07T01:13:28;14.13;;;8.32;;
68377;SDS011;55322;48.146;11.516;2023-02-07T01:15:53;17.27;;;9.00;;
68377;SDS011;55322;48.146;11.516;2023-02-07T01:18:19;20.80;;;10.23;;
68377;SDS011;55322;48.146;11.516;2023-02-07T01:20:44;16.37;;;8.07;;
68377;SDS011;55322;48.146;11.516;2023-02-07T01:23:10;17.95;;;9.02;;
68377;SDS011;55322;48.146;11.516;2023-02-07T01:25:37;18.42;;;9.80;;
68377;SDS011;55322;48.146;11.516;2023-02-07T01:28:03;17.00;;;8.73;;
68377;SDS011;55322;48.146;11.516;2023-02-07T01:30:28;19.13;;;10.73;;
68377;SDS011;55322;48.146;11.516;2023-02-07T01:32:54;19.75;;;10.20;;
68377;SDS011;55322;48.146;11.516;2023-02-07T01:35:19;19.73;;;9.97;;
68377;SDS011;55322;48.146;11.516;2023-02-07T01:37:45;19.13;;;9.60;;
68377;SDS011;55322;48.146;11.516;2023-02-07T01:40:10;16.93;;;9.30;;
68377;SDS011;55322;48.146;11.516;2023-02-07T01:42:37;18.17;;;8.85;;
68377;SDS011;55322;48.146;11.516;2023-02-07T01:47:50;19.23;;;9.90;;
68377;SDS011;55322;48.146;11.516;2023-02-07T01:50:17;19.55;;;9.77;;
68377;SDS011;55322;48.146;11.516;2023-02-07T01:52:42;18.93;;;8.60;;
68377;SDS011;55322;48.146;11.516;2023-02-07T01:55:10;15.27;;;9.77;;
68377;SDS011;55322;48.146;11.516;2023-02-07T01:57:40;14.93;;;8.10;;
68377;SDS011;55322;48.146;11.516;2023-02-07T02:00:07;18.77;;;9.60;;
68377;SDS011;55322;48.146;11.516;2023-02-07T02:02:34;20.25;;;10.32;;
68377;SDS011;55322;48.146;11.516;2023-02-07T02:05:02;16.48;;;7.47;;
68377;SDS011;55322;48.146;11.516;2023-02-07T02:07:28;17.17;;;9.02;;
68377;SDS011;55322;48.146;11.516;2023-02-07T02:09:56;17.25;;;9.10;;
68377;SDS011;55322;48.146;11.516;2023-02-07T02:18:04;17.88;;;9.68;;
68377;SDS011;55322;48.146;11.516;2023-02-07T02:20:54;16.80;;;8.43;;
68377;SDS011;55322;48.146;11.516;2023-02-07T02:26:35;19.33;;;9.50;;
68377;SDS011;55322;48.146;11.516;2023-02-07T02:34:46;17.48;;;9.35;;
68377;SDS011;55322;48.146;11.516;2023-02-07T02:37:47;17.55;;;9.07;;
68377;SDS011;55322;48.146;11.516;2023-02-07T02:40:39;16.63;;;9.43;;
68377;SDS011;55322;48.146;11.516;2023-02-07T02:43:20;12.35;;;6.72;;
68377;SDS011;55322;48.146;11.516;2023-02-07T02:46:00;17.70;;;8.43;;
68377;SDS011;55322;48.146;11.516;2023-02-07T02:48:30;16.08;;;7.72;;
68377;SDS011;55322;48.146;11.516;2023-02-07T02:50:57;17.27;;;8.13;;
68377;SDS011;55322;48.146;11.516;2023-02-07T02:53:23;13.20;;;7.00;;
68377;SDS011;55322;48.146;11.516;2023-02-07T03:01:03;19.50;;;8.90;;
68377;SDS011;55322;48.146;11.516;2023-02-07T03:09:16;17.17;;;8.70;;
68377;SDS011;55322;48.146;11.516;2023-02-07T03:14:30;18.38;;;9.30;;
68377;SDS011;55322;48.146;11.516;2023-02-07T03:19:45;13.93;;;7.43;;
68377;SDS011;55322;48.146;11.516;2023-02-07T03:22:12;18.38;;;9.93;;
68377;SDS011;55322;48.146;11.516;2023-02-07T03:24:41;17.63;;;8.38;;
68377;SDS011;55322;48.146;11.516;2023-02-07T03:27:10;14.23;;;7.50;;
68377;SDS011;55322;48.146;11.516;2023-02-07T03:29:38;15.95;;;8.63;;
68377;SDS011;55322;48.146;11.516;2023-02-07T03:32:05;16.90;;;8.73;;
68377;SDS011;55322;48.146;11.516;2023-02-07T03:34:34;16.50;;;7.95;;
68377;SDS011;55322;48.146;11.516;2023-02-07T03:37:06;20.48;;;8.18;;
68377;SDS011;55322;48.146;11.516;2023-02-07T03:39:33;15.90;;;8.95;;
68377;SDS011;55322;48.146;11.516;2023-02-07T03:42:00;20.03;;;9.03;;
68377;SDS011;55322;48.146;11.516;2023-02-07T03:44:28;17.10;;;8.63;;
68377;SDS011;55322;48.146;11.516;2023-02-07T03:46:57;18.85;;;9.45;;
68377;SDS011;55322;48.146;11.516;2023-02-07T03:49:23;16.50;;;7.67;;
68377;SDS011;55322;48.146;11.516;2023-02-07T03:51:48;17.00;;;8.77;;
68377;SDS011;55322;48.146;11.516;2023-02-07T03:54:14;14.40;;;6.22;;
68377;SDS011;55322;48.146;11.516;2023-02-07T03:56:39;13.60;;;6.87;;
68377;SDS011;55322;48.146;11.516;2023-02-07T03:59:05;12.73;;;7.20;;
68377;SDS011;55322;48.146;11.516;2023-02-07T04:01:30;14.38;;;5.80;;
68377;SDS011;55322;48.146;11.516;2023-02-07T04:03:56;16.52;;;8.00;;
68377;SDS011;55322;48.146;11.516;2023-02-07T04:06:21;14.40;;;6.63;;
68377;SDS011;55322;48.146;11.516;2023-02-07T04:08:46;16.53;;;8.53;;
68377;SDS011;55322;48.146;11.516;2023-02-07T04:11:12;15.23;;;7.80;;
68377;SDS011;55322;48.146;11.516;2023-02-07T04:13:37;16.73;;;8.20;;
68377;SDS011;55322;48.146;11.516;2023-02-07T04:16:03;16.50;;;8.13;;
68377;SDS011;55322;48.146;11.516;2023-02-07T04:18:29;14.35;;;7.75;;
68377;SDS011;55322;48.146;11.516;2023-02-07T04:21:02;16.77;;;8.67;;
68377;SDS011;55322;48.146;11.516;2023-02-07T04:23:29;16.00;;;7.95;;
68377;SDS011;55322;48.146;11.516;2023-02-07T04:25:55;18.55;;;9.10;;
68377;SDS011;55322;48.146;11.516;2023-02-07T04:28:20;17.17;;;8.90;;
68377;SDS011;55322;48.146;11.516;2023-02-07T04:30:46;20.77;;;7.63;;
68377;SDS011;55322;48.146;11.516;2023-02-07T04:33:11;19.13;;;8.73;;
68377;SDS011;55322;48.146;11.516;2023-02-07T04:35:37;15.20;;;8.43;;
68377;SDS011;55322;48.146;11.516;2023-02-07T04:38:02;17.58;;;8.40;;
68377;SDS011;55322;48.146;11.516;2023-02-07T04:40:27;17.43;;;8.50;;
68377;SDS011;55322;48.146;11.516;2023-02-07T04:42:52;16.37;;;7.93;;
68377;SDS011;55322;48.146;11.516;2023-02-07T04:45:18;15.17;;;7.77;;
68377;SDS011;55322;48.146;11.516;2023-02-07T04:47:43;17.60;;;8.63;;
68377;SDS011;55322;48.146;11.516;2023-02-07T04:50:08;14.10;;;7.10;;
68377;SDS011;55322;48.146;11.516;2023-02-07T04:52:34;15.57;;;8.32;;
68377;SDS011;55322;48.146;11.516;2023-02-07T04:54:59;13.03;;;6.03;;
68377;SDS011;55322;48.146;11.516;2023-02-07T04:57:25;17.20;;;8.03;;
68377;SDS011;55322;48.146;11.516;2023-02-07T04:59:50;16.90;;;8.70;;
68377;SDS011;55322;48.146;11.516;2023-02-07T05:02:15;16.40;;;8.63;;
68377;SDS011;55322;48.146;11.516;2023-02-07T05:04:41;18.80;;;9.30;;
68377;SDS011;55322;48.146;11.516;2023-02-07T05:07:06;13.00;;;7.43;;
68377;SDS011;55322;48.146;11.516;2023-02-07T05:09:31;13.23;;;6.60;;
68377;SDS011;55322;48.146;11.516;2023-02-07T05:11:56;20.35;;;8.68;;
68377;SDS011;55322;48.146;11.516;2023-02-07T05:14:22;13.17;;;6.20;;
68377;SDS011;55322;48.146;11.516;2023-02-07T05:16:47;15.30;;;8.53;;
68377;SDS011;55322;48.146;11.516;2023-02-07T05:19:14;17.20;;;8.93;;
68377;SDS011;55322;48.146;11.516;2023-02-07T05:21:39;13.18;;;6.38;;
68377;SDS011;55322;48.146;11.516;2023-02-07T05:24:05;15.00;;;7.70;;
68377;SDS011;55322;48.146;11.516;2023-02-07T05:26:30;19.67;;;9.33;;
68377;SDS011;55322;48.146;11.516;2023-02-07T05:28:56;15.63;;;7.67;;
68377;SDS011;55322;48.146;11.516;2023-02-07T05:31:21;19.40;;;8.20;;
68377;SDS011;55322;48.146;11.516;2023-02-07T05:34:06;16.10;;;8.70;;
68377;SDS011;55322;48.146;11.516;2023-02-07T05:36:31;17.60;;;9.00;;
68377;SDS011;55322;48.146;11.516;2023-02-07T05:38:57;17.23;;;8.80;;
68377;SDS011;55322;48.146;11.516;2023-02-07T05:41:22;17.92;;;8.27;;
68377;SDS011;55322;48.146;11.516;2023-02-07T05:43:47;19.07;;;9.67;;
68377;SDS011;55322;48.146;11.516;2023-02-07T05:46:13;14.20;;;8.10;;
68377;SDS011;55322;48.146;11.516;2023-02-07T05:48:38;15.60;;;8.07;;
68377;SDS011;55322;48.146;11.516;2023-02-07T05:51:03;17.33;;;7.13;;
68377;SDS011;55322;48.146;11.516;2023-02-07T05:53:29;15.97;;;8.10;;
68377;SDS011;55322;48.146;11.516;2023-02-07T05:55:54;18.03;;;8.47;;
68377;SDS011;55322;48.146;11.516;2023-02-07T05:58:19;18.17;;;8.90;;
68377;SDS011;55322;48.146;11.516;2023-02-07T06:00:45;16.65;;;7.63;;
68377;SDS011;55322;48.146;11.516;2023-02-07T06:03:12;17.03;;;8.67;;
68377;SDS011;55322;48.146;11.516;2023-02-07T06:05:37;15.40;;;7.97;;
68377;SDS011;55322;48.146;11.516;2023-02-07T06:08:02;17.87;;;8.70;;
68377;SDS011;55322;48.146;11.516;2023-02-07T06:10:28;17.37;;;8.83;;
68377;SDS011;55322;48.146;11.516;2023-02-07T06:12:53;16.87;;;7.47;;
68377;SDS011;55322;48.146;11.516;2023-02-07T06:15:18;17.33;;;8.73;;
68377;SDS011;55322;48.146;11.516;2023-02-07T06:17:44;14.27;;;7.00;;
68377;SDS011;55322;48.146;11.516;2023-02-07T06:20:09;13.47;;;5.87;;
68377;SDS011;55322;48.146;11.516;2023-02-07T06:22:35;12.95;;;6.72;;
68377;SDS011;55322;48.146;11.516;2023-02-07T06:25:00;12.73;;;5.90;;
68377;SDS011;55322;48.146;11.516;2023-02-07T06:27:26;12.47;;;6.37;;
68377;SDS011;55322;48.146;11.516;2023-02-07T06:29:51;13.20;;;6.60;;
68377;SDS011;55322;48.146;11.516;2023-02-07T06:32:16;12.20;;;6.60;;
68377;SDS011;55322;48.146;11.516;2023-02-07T06:34:42;15.48;;;7.88;;
68377;SDS011;55322;48.146;11.516;2023-02-07T06:37:07;16.43;;;7.43;;
68377;SDS011;55322;48.146;11.516;2023-02-07T06:39:32;17.23;;;8.13;;
68377;SDS011;55322;48.146;11.516;2023-02-07T06:41:57;14.03;;;5.97;;
68377;SDS011;55322;48.146;11.516;2023-02-07T06:44:23;13.47;;;6.67;;
68377;SDS011;55322;48.146;11.516;2023-02-07T06:46:48;11.90;;;5.87;;
68377;SDS011;55322;48.146;11.516;2023-02-07T06:49:13;13.40;;;6.50;;
68377;SDS011;55322;48.146;11.516;2023-02-07T06:51:39;15.17;;;6.80;;
68377;SDS011;55322;48.146;11.516;2023-02-07T06:54:04;14.63;;;7.80;;
68377;SDS011;55322;48.146;11.516;2023-02-07T06:56:33;15.65;;;7.70;;
68377;SDS011;55322;48.146;11.516;2023-02-07T06:58:59;30.98;;;8.18;;
68377;SDS011;55322;48.146;11.516;2023-02-07T07:01:24;13.87;;;6.47;;
68377;SDS011;55322;48.146;11.516;2023-02-07T07:03:49;13.23;;;6.87;;
68377;SDS011;55322;48.146;11.516;2023-02-07T07:06:15;12.53;;;5.97;;
68377;SDS011;55322;48.146;11.516;2023-02-07T07:08:41;11.77;;;6.07;;
68377;SDS011;55322;48.146;11.516;2023-02-07T07:11:06;18.10;;;7.30;;
68377;SDS011;55322;48.146;11.516;2023-02-07T07:13:31;15.40;;;5.83;;
68377;SDS011;55322;48.146;11.516;2023-02-07T07:15:57;12.27;;;6.27;;
68377;SDS011;55322;48.146;11.516;2023-02-07T07:18:22;13.33;;;7.23;;
68377;SDS011;55322;48.146;11.516;2023-02-07T07:20:53;16.60;;;8.43;;
68377;SDS011;55322;48.146;11.516;2023-02-07T07:23:19;14.90;;;7.05;;
68377;SDS011;55322;48.146;11.516;2023-02-07T07:25:45;18.70;;;9.13;;
68377;SDS011;55322;48.146;11.516;2023-02-07T07:28:10;18.58;;;8.35;;
68377;SDS011;55322;48.146;11.516;2023-02-07T07:30:35;13.48;;;7.60;;
68377;SDS011;55322;48.146;11.516;2023-02-07T07:33:01;13.20;;;6.70;;
68377;SDS011;55322;48.146;11.516;2023-02-07T07:35:26;14.10;;;6.43;;
68377;SDS011;55322;48.146;11.516;2023-02-07T07:37:52;14.93;;;6.10;;
68377;SDS011;55322;48.146;11.516;2023-02-07T07:40:18;16.33;;;8.27;;
68377;SDS011;55322;48.146;11.516;2023-02-07T07:42:44;17.93;;;8.33;;
68377;SDS011;55322;48.146;11.516;2023-02-07T07:45:09;18.67;;;8.50;;
68377;SDS011;55322;48.146;11.516;2023-02-07T07:47:34;19.13;;;8.17;;
68377;SDS011;55322;48.146;11.516;2023-02-07T07:50:00;12.10;;;6.17;;
68377;SDS011;55322;48.146;11.516;2023-02-07T07:52:25;12.93;;;6.80;;
68377;SDS011;55322;48.146;11.516;2023-02-07T07:54:50;14.10;;;6.53;;
68377;SDS011;55322;48.146;11.516;2023-02-07T07:57:16;13.40;;;7.68;;
68377;SDS011;55322;48.146;11.516;2023-02-07T07:59:41;12.50;;;6.03;;
68377;SDS011;55322;48.146;11.516;2023-02-07T08:02:08;16.00;;;7.87;;
68377;SDS011;55322;48.146;11.516;2023-02-07T08:04:36;15.63;;;7.97;;
68377;SDS011;55322;48.146;11.516;2023-02-07T08:07:01;14.07;;;7.13;;
68377;SDS011;55322;48.146;11.516;2023-02-07T08:09:26;14.33;;;7.43;;
68377;SDS011;55322;48.146;11.516;2023-02-07T08:11:52;15.30;;;7.47;;
68377;SDS011;55322;48.146;11.516;2023-02-07T08:14:17;16.93;;;8.30;;
68377;SDS011;55322;48.146;11.516;2023-02-07T08:16:42;10.97;;;5.70;;
68377;SDS011;55322;48.146;11.516;2023-02-07T08:19:08;13.77;;;7.70;;
68377;SDS011;55322;48.146;11.516;2023-02-07T08:21:33;16.13;;;7.50;;
68377;SDS011;55322;48.146;11.516;2023-02-07T08:23:59;18.35;;;8.40;;
68377;SDS011;55322;48.146;11.516;2023-02-07T08:26:24;19.35;;;8.20;;
68377;SDS011;55322;48.146;11.516;2023-02-07T08:28:49;14.70;;;8.07;;
68377;SDS011;55322;48.146;11.516;2023-02-07T08:31:16;17.13;;;8.73;;
68377;SDS011;55322;48.146;11.516;2023-02-07T08:33:42;15.93;;;7.70;;
68377;SDS011;55322;48.146;11.516;2023-02-07T08:36:08;17.42;;;6.32;;
68377;SDS011;55322;48.146;11.516;2023-02-07T08:38:35;13.13;;;6.28;;
68377;SDS011;55322;48.146;11.516;2023-02-07T08:41:01;16.13;;;8.27;;
68377;SDS011;55322;48.146;11.516;2023-02-07T08:43:26;16.23;;;7.20;;
68377;SDS011;55322;48.146;11.516;2023-02-07T08:45:51;13.27;;;7.83;;
68377;SDS011;55322;48.146;11.516;2023-02-07T08:48:17;20.03;;;6.97;;
68377;SDS011;55322;48.146;11.516;2023-02-07T08:50:43;20.55;;;9.23;;
68377;SDS011;55322;48.146;11.516;2023-02-07T08:53:08;16.33;;;8.27;;
68377;SDS011;55322;48.146;11.516;2023-02-07T08:55:34;17.10;;;7.80;;
68377;SDS011;55322;48.146;11.516;2023-02-07T08:57:59;14.10;;;7.68;;
68377;SDS011;55322;48.146;11.516;2023-02-07T09:00:25;12.77;;;6.50;;
68377;SDS011;55322;48.146;11.516;2023-02-07T09:02:50;13.40;;;6.43;;
68377;SDS011;55322;48.146;11.516;2023-02-07T09:05:15;11.73;;;6.57;;
68377;SDS011;55322;48.146;11.516;2023-02-07T09:07:41;12.93;;;6.60;;
68377;SDS011;55322;48.146;11.516;2023-02-07T09:10:07;16.70;;;6.22;;
68377;SDS011;55322;48.146;11.516;2023-02-07T09:12:34;14.18;;;7.30;;
68377;SDS011;55322;48.146;11.516;2023-02-07T09:15:00;11.93;;;6.32;;
68377;SDS011;55322;48.146;11.516;2023-02-07T09:17:25;13.50;;;7.63;;
68377;SDS011;55322;48.146;11.516;2023-02-07T09:19:51;16.77;;;6.95;;
68377;SDS011;55322;48.146;11.516;2023-02-07T09:22:16;15.23;;;7.40;;
68377;SDS011;55322;48.146;11.516;2023-02-07T09:24:41;16.93;;;7.73;;
68377;SDS011;55322;48.146;11.516;2023-02-07T09:27:07;13.87;;;7.30;;
68377;SDS011;55322;48.146;11.516;2023-02-07T09:29:32;16.50;;;8.63;;
68377;SDS011;55322;48.146;11.516;2023-02-07T09:31:57;15.57;;;7.90;;
68377;SDS011;55322;48.146;11.516;2023-02-07T09:34:23;13.45;;;7.05;;
68377;SDS011;55322;48.146;11.516;2023-02-07T09:36:48;15.82;;;7.22;;
68377;SDS011;55322;48.146;11.516;2023-02-07T09:39:16;16.85;;;8.68;;
68377;SDS011;55322;48.146;11.516;2023-02-07T09:45:02;14.40;;;7.88;;
68377;SDS011;55322;48.146;11.516;2023-02-07T09:47:31;17.63;;;8.80;;
68377;SDS011;55322;48.146;11.516;2023-02-07T09:50:07;15.15;;;7.75;;
68377;SDS011;55322;48.146;11.516;2023-02-07T09:52:40;13.40;;;7.47;;
68377;SDS011;55322;48.146;11.516;2023-02-07T09:55:27;12.98;;;6.70;;
68377;SDS011;55322;48.146;11.516;2023-02-07T09:58:02;13.73;;;7.70;;
68377;SDS011;55322;48.146;11.516;2023-02-07T10:00:42;15.13;;;7.80;;
68377;SDS011;55322;48.146;11.516;2023-02-07T10:05:57;16.75;;;8.70;;
68377;SDS011;55322;48.146;11.516;2023-02-07T10:08:23;17.17;;;8.93;;
68377;SDS011;55322;48.146;11.516;2023-02-07T10:10:57;15.18;;;8.95;;
68377;SDS011;55322;48.146;11.516;2023-02-07T10:13:34;17.03;;;7.50;;
68377;SDS011;55322;48.146;11.516;2023-02-07T10:19:16;16.15;;;8.85;;
68377;SDS011;55322;48.146;11.516;2023-02-07T10:27:13;11.80;;;6.23;;
68377;SDS011;55322;48.146;11.516;2023-02-07T10:29:55;16.50;;;8.90;;
68377;SDS011;55322;48.146;11.516;2023-02-07T10:32:32;15.35;;;7.85;;
68377;SDS011;55322;48.146;11.516;2023-02-07T10:35:03;15.73;;;8.50;;
68377;SDS011;55322;48.146;11.516;2023-02-07T10:37:38;15.63;;;9.10;;
68377;SDS011;55322;48.146;11.516;2023-02-07T10:40:12;17.33;;;9.53;;
68377;SDS011;55322;48.146;11.516;2023-02-07T10:43:01;19.10;;;8.38;;
68377;SDS011;55322;48.146;11.516;2023-02-07T10:45:29;16.15;;;8.57;;
68377;SDS011;55322;48.146;11.516;2023-02-07T10:47:55;18.53;;;9.00;;
68377;SDS011;55322;48.146;11.516;2023-02-07T10:50:22;14.10;;;8.13;;
68377;SDS011;55322;48.146;11.516;2023-02-07T10:52:50;16.15;;;8.55;;
68377;SDS011;55322;48.146;11.516;2023-02-07T10:55:18;12.90;;;6.95;;
68377;SDS011;55322;48.146;11.516;2023-02-07T10:57:58;14.18;;;7.80;;
68377;SDS011;55322;48.146;11.516;2023-02-07T11:00:27;14.67;;;7.57;;
68377;SDS011;55322;48.146;11.516;2023-02-07T11:03:02;16.25;;;8.23;;
68377;SDS011;55322;48.146;11.516;2023-02-07T11:05:30;14.30;;;8.32;;
68377;SDS011;55322;48.146;11.516;2023-02-07T11:07:58;12.17;;;6.60;;
68377;SDS011;55322;48.146;11.516;2023-02-07T11:10:40;14.93;;;8.43;;
68377;SDS011;55322;48.146;11.516;2023-02-07T11:13:13;14.70;;;7.85;;
68377;SDS011;55322;48.146;11.516;2023-02-07T11:15:54;15.32;;;7.18;;
68377;SDS011;55322;48.146;11.516;2023-02-07T11:18:41;13.75;;;7.25;;
68377;SDS011;55322;48.146;11.516;2023-02-07T11:23:53;11.65;;;6.65;;
68377;SDS011;55322;48.146;11.516;2023-02-07T11:26:22;13.88;;;7.68;;
68377;SDS011;55322;48.146;11.516;2023-02-07T11:29:02;15.20;;;6.90;;
68377;SDS011;55322;48.146;11.516;2023-02-07T11:31:31;14.43;;;6.90;;
68377;SDS011;55322;48.146;11.516;2023-02-07T11:34:07;13.93;;;7.15;;
68377;SDS011;55322;48.146;11.516;2023-02-07T11:36:53;14.43;;;7.40;;
68377;SDS011;55322;48.146;11.516;2023-02-07T11:39:20;16.10;;;7.75;;
68377;SDS011;55322;48.146;11.516;2023-02-07T11:41:54;18.52;;;7.18;;
68377;SDS011;55322;48.146;11.516;2023-02-07T11:44:24;11.87;;;7.00;;
68377;SDS011;55322;48.146;11.516;2023-02-07T11:46:51;13.55;;;7.70;;
68377;SDS011;55322;48.146;11.516;2023-02-07T11:49:39;15.43;;;7.28;;
68377;SDS011;55322;48.146;11.516;2023-02-07T11:52:09;12.65;;;6.93;;
68377;SDS011;55322;48.146;11.516;2023-02-07T11:54:34;15.23;;;7.10;;
68377;SDS011;55322;48.146;11.516;2023-02-07T11:57:08;15.07;;;7.38;;
68377;SDS011;55322;48.146;11.516;2023-02-07T11:59:45;13.32;;;6.78;;
68377;SDS011;55322;48.146;11.516;2023-02-07T12:02:16;13.48;;;6.45;;
68377;SDS011;55322;48.146;11.516;2023-02-07T12:04:46;15.77;;;7.72;;
68377;SDS011;55322;48.146;11.516;2023-02-07T12:07:18;14.93;;;6.90;;
68377;SDS011;55322;48.146;11.516;2023-02-07T12:09:50;13.32;;;7.15;;
68377;SDS011;55322;48.146;11.516;2023-02-07T12:12:26;15.13;;;6.50;;
68377;SDS011;55322;48.146;11.516;2023-02-07T12:15:02;15.55;;;6.72;;
68377;SDS011;55322;48.146;11.516;2023-02-07T12:18:09;13.23;;;5.85;;
68377;SDS011;55322;48.146;11.516;2023-02-07T12:20:28;14.10;;;5.18;;
68377;SDS011;55322;48.146;11.516;2023-02-07T12:23:06;12.65;;;5.78;;
68377;SDS011;55322;48.146;11.516;2023-02-07T12:25:47;10.20;;;5.40;;
68377;SDS011;55322;48.146;11.516;2023-02-07T12:28:31;10.68;;;5.20;;
68377;SDS011;55322;48.146;11.516;2023-02-07T12:31:04;12.75;;;5.63;;
68377;SDS011;55322;48.146;11.516;2023-02-07T12:33:39;9.20;;;4.57;;
68377;SDS011;55322;48.146;11.516;2023-02-07T12:36:13;10.38;;;4.40;;
68377;SDS011;55322;48.146;11.516;2023-02-07T12:38:46;13.05;;;4.70;;
68377;SDS011;55322;48.146;11.516;2023-02-07T12:41:24;10.63;;;5.00;;
68377;SDS011;55322;48.146;11.516;2023-02-07T12:44:14;8.80;;;3.78;;
68377;SDS011;55322;48.146;11.516;2023-02-07T12:47:11;9.95;;;4.25;;
68377;SDS011;55322;48.146;11.516;2023-02-07T12:50:13;10.70;;;4.94;;
68377;SDS011;55322;48.146;11.516;2023-02-07T12:55:39;9.23;;;4.03;;
68377;SDS011;55322;48.146;11.516;2023-02-07T13:09:30;11.75;;;3.55;;
68377;SDS011;55322;48.146;11.516;2023-02-07T13:12:11;8.55;;;3.78;;
68377;SDS011;55322;48.146;11.516;2023-02-07T13:17:57;9.07;;;3.70;;
68377;SDS011;55322;48.146;11.516;2023-02-07T13:25:50;7.45;;;3.30;;
68377;SDS011;55322;48.146;11.516;2023-02-07T13:28:22;8.27;;;3.28;;
68377;SDS011;55322;48.146;11.516;2023-02-07T13:30:51;9.18;;;3.65;;
68377;SDS011;55322;48.146;11.516;2023-02-07T13:35:52;9.52;;;4.05;;
68377;SDS011;55322;48.146;11.516;2023-02-07T13:38:22;12.43;;;4.97;;
68377;SDS011;55322;48.146;11.516;2023-02-07T13:44:18;16.40;;;4.90;;
68377;SDS011;55322;48.146;11.516;2023-02-07T13:47:04;12.32;;;5.30;;
68377;SDS011;55322;48.146;11.516;2023-02-07T13:49:41;12.32;;;4.45;;
68377;SDS011;55322;48.146;11.516;2023-02-07T13:55:01;11.93;;;5.00;;
68377;SDS011;55322;48.146;11.516;2023-02-07T14:00:19;12.40;;;5.30;;
68377;SDS011;55322;48.146;11.516;2023-02-07T14:02:47;13.60;;;5.32;;
68377;SDS011;55322;48.146;11.516;2023-02-07T14:05:25;13.57;;;5.50;;
68377;SDS011;55322;48.146;11.516;2023-02-07T14:08:20;11.55;;;5.40;;
68377;SDS011;55322;48.146;11.516;2023-02-07T14:10:47;10.77;;;4.72;;
68377;SDS011;55322;48.146;11.516;2023-02-07T14:18:33;10.27;;;4.70;;
68377;SDS011;55322;48.146;11.516;2023-02-07T14:21:21;12.75;;;5.68;;
68377;SDS011;55322;48.146;11.516;2023-02-07T14:24:01;14.32;;;6.22;;
68377;SDS011;55322;48.146;11.516;2023-02-07T14:32:00;12.98;;;5.65;;
68377;SDS011;55322;48.146;11.516;2023-02-07T14:45:37;13.35;;;5.90;;
68377;SDS011;55322;48.146;11.516;2023-02-07T14:48:28;14.43;;;5.90;;
68377;SDS011;55322;48.146;11.516;2023-02-07T14:51:49;13.65;;;5.60;;
68377;SDS011;55322;48.146;11.516;2023-02-07T14:57:18;15.43;;;6.22;;
68377;SDS011;55322;48.146;11.516;2023-02-07T15:08:16;12.32;;;5.30;;
68377;SDS011;55322;48.146;11.516;2023-02-07T15:10:56;13.73;;;6.07;;
68377;SDS011;55322;48.146;11.516;2023-02-07T15:16:07;13.55;;;6.10;;
68377;SDS011;55322;48.146;11.516;2023-02-07T15:18:40;11.15;;;4.07;;
68377;SDS011;55322;48.146;11.516;2023-02-07T15:21:51;12.40;;;5.30;;
68377;SDS011;55322;48.146;11.516;2023-02-07T15:24:02;14.70;;;5.78;;
68377;SDS011;55322;48.146;11.516;2023-02-07T15:26:29;14.60;;;6.30;;
68377;SDS011;55322;48.146;11.516;2023-02-07T15:29:03;12.88;;;5.65;;
68377;SDS011;55322;48.146;11.516;2023-02-07T15:31:38;15.77;;;6.63;;
68377;SDS011;55322;48.146;11.516;2023-02-07T15:34:05;12.20;;;5.05;;
68377;SDS011;55322;48.146;11.516;2023-02-07T15:36:41;14.50;;;6.22;;
68377;SDS011;55322;48.146;11.516;2023-02-07T15:39:22;12.35;;;4.93;;
68377;SDS011;55322;48.146;11.516;2023-02-07T15:41:52;15.23;;;6.97;;
68377;SDS011;55322;48.146;11.516;2023-02-07T15:44:29;16.23;;;7.45;;
68377;SDS011;55322;48.146;11.516;2023-02-07T15:46:59;17.38;;;6.72;;
68377;SDS011;55322;48.146;11.516;2023-02-07T15:49:28;14.05;;;6.13;;
68377;SDS011;55322;48.146;11.516;2023-02-07T15:54:41;17.15;;;6.82;;
68377;SDS011;55322;48.146;11.516;2023-02-07T15:57:11;15.75;;;7.65;;
68377;SDS011;55322;48.146;11.516;2023-02-07T16:00:07;15.80;;;7.10;;
68377;SDS011;55322;48.146;11.516;2023-02-07T16:02:41;18.63;;;7.50;;
68377;SDS011;55322;48.146;11.516;2023-02-07T16:05:15;18.65;;;8.50;;
68377;SDS011;55322;48.146;11.516;2023-02-07T16:07:46;16.30;;;7.80;;
68377;SDS011;55322;48.146;11.516;2023-02-07T16:10:13;14.25;;;6.45;;
68377;SDS011;55322;48.146;11.516;2023-02-07T16:12:44;14.80;;;6.32;;
68377;SDS011;55322;48.146;11.516;2023-02-07T16:15:50;14.63;;;6.93;;
68377;SDS011;55322;48.146;11.516;2023-02-07T16:21:03;12.23;;;4.82;;
68377;SDS011;55322;48.146;11.516;2023-02-07T16:23:36;15.50;;;6.60;;
68377;SDS011;55322;48.146;11.516;2023-02-07T16:26:01;15.40;;;7.00;;
68377;SDS011;55322;48.146;11.516;2023-02-07T16:28:28;15.40;;;7.35;;
68377;SDS011;55322;48.146;11.516;2023-02-07T16:30:54;17.98;;;7.07;;
68377;SDS011;55322;48.146;11.516;2023-02-07T16:33:19;17.83;;;6.83;;
68377;SDS011;55322;48.146;11.516;2023-02-07T16:35:45;14.47;;;6.40;;
68377;SDS011;55322;48.146;11.516;2023-02-07T16:38:10;15.20;;;5.93;;
68377;SDS011;55322;48.146;11.516;2023-02-07T16:40:35;16.02;;;6.78;;